sensor_id;sensor_type;location;lat;lon;timestamp;temperature;humidity
63277;DHT22;49403;51.046;13.780;2022-10-16T00:00:29;17.80;94.40
63277;DHT22;49403;51.046;13.780;2022-10-16T00:01:07;16.80;93.80
63277;DHT22;49403;51.046;13.780;2022-10-16T00:01:38;15.80;93.30
63277;DHT22;49403;51.046;13.780;2022-10-16T00:02:09;16.80;93.90
63277;DHT22;49403;51.046;13.780;2022-10-16T00:02:40;16.70;94.00
63277;DHT22;49403;51.046;13.780;2022-10-16T00:03:11;16.70;94.00
63277;DHT22;49403;51.046;13.780;2022-10-16T00:03:42;17.50;94.20
63277;DHT22;49403;51.046;13.780;2022-10-16T00:04:13;16.70;93.90
63277;DHT22;49403;51.046;13.780;2022-10-16T00:04:44;15.00;93.30
63277;DHT22;49403;51.046;13.780;2022-10-16T00:05:14;16.70;94.10
63277;DHT22;49403;51.046;13.780;2022-10-16T00:05:45;16.70;94.20
63277;DHT22;49403;51.046;13.780;2022-10-16T00:06:17;15.20;93.50
63277;DHT22;49403;51.046;13.780;2022-10-16T00:06:48;16.70;94.10
63277;DHT22;49403;51.046;13.780;2022-10-16T00:07:18;16.70;94.20
63277;DHT22;49403;51.046;13.780;2022-10-16T00:07:49;15.60;93.70
63277;DHT22;49403;51.046;13.780;2022-10-16T00:08:20;16.70;94.30
63277;DHT22;49403;51.046;13.780;2022-10-16T00:08:51;16.70;94.40
63277;DHT22;49403;51.046;13.780;2022-10-16T00:09:22;16.70;94.20
63277;DHT22;49403;51.046;13.780;2022-10-16T00:09:53;16.70;94.40
63277;DHT22;49403;51.046;13.780;2022-10-16T00:10:24;16.60;94.30
63277;DHT22;49403;51.046;13.780;2022-10-16T00:10:58;14.80;93.60
63277;DHT22;49403;51.046;13.780;2022-10-16T00:11:30;16.70;94.30
63277;DHT22;49403;51.046;13.780;2022-10-16T00:12:03;16.70;94.40
63277;DHT22;49403;51.046;13.780;2022-10-16T00:12:36;16.70;94.60
63277;DHT22;49403;51.046;13.780;2022-10-16T00:13:07;16.30;94.40
63277;DHT22;49403;51.046;13.780;2022-10-16T00:13:39;16.60;94.40
63277;DHT22;49403;51.046;13.780;2022-10-16T00:14:12;16.60;94.40
63277;DHT22;49403;51.046;13.780;2022-10-16T00:14:42;16.60;94.40
63277;DHT22;49403;51.046;13.780;2022-10-16T00:15:14;16.60;94.70
63277;DHT22;49403;51.046;13.780;2022-10-16T00:15:45;16.60;94.60
63277;DHT22;49403;51.046;13.780;2022-10-16T00:16:16;16.60;94.60
63277;DHT22;49403;51.046;13.780;2022-10-16T00:16:47;16.60;94.50
63277;DHT22;49403;51.046;13.780;2022-10-16T00:17:18;16.60;94.70
63277;DHT22;49403;51.046;13.780;2022-10-16T00:17:49;16.40;94.60
63277;DHT22;49403;51.046;13.780;2022-10-16T00:18:20;16.70;94.80
63277;DHT22;49403;51.046;13.780;2022-10-16T00:18:50;16.60;94.80
63277;DHT22;49403;51.046;13.780;2022-10-16T00:19:21;16.60;94.80
63277;DHT22;49403;51.046;13.780;2022-10-16T00:19:52;16.60;94.80
63277;DHT22;49403;51.046;13.780;2022-10-16T00:20:22;16.60;95.20
63277;DHT22;49403;51.046;13.780;2022-10-16T00:20:53;16.60;94.80
63277;DHT22;49403;51.046;13.780;2022-10-16T00:21:25;18.10;95.40
63277;DHT22;49403;51.046;13.780;2022-10-16T00:21:56;16.60;94.70
63277;DHT22;49403;51.046;13.780;2022-10-16T00:22:27;15.10;94.20
63277;DHT22;49403;51.046;13.780;2022-10-16T00:22:58;16.60;94.90
63277;DHT22;49403;51.046;13.780;2022-10-16T00:23:28;16.60;94.90
63277;DHT22;49403;51.046;13.780;2022-10-16T00:24:01;15.30;94.40
63277;DHT22;49403;51.046;13.780;2022-10-16T00:24:32;16.60;94.80
63277;DHT22;49403;51.046;13.780;2022-10-16T00:25:02;16.60;94.90
63277;DHT22;49403;51.046;13.780;2022-10-16T00:25:33;16.60;94.90
63277;DHT22;49403;51.046;13.780;2022-10-16T00:26:05;16.60;95.00
63277;DHT22;49403;51.046;13.780;2022-10-16T00:26:37;16.60;94.90
63277;DHT22;49403;51.046;13.780;2022-10-16T00:27:08;16.70;95.00
63277;DHT22;49403;51.046;13.780;2022-10-16T00:27:39;16.60;95.00
63277;DHT22;49403;51.046;13.780;2022-10-16T00:28:09;16.10;94.80
63277;DHT22;49403;51.046;13.780;2022-10-16T00:28:40;16.70;95.10
63277;DHT22;49403;51.046;13.780;2022-10-16T00:29:11;16.70;95.10
63277;DHT22;49403;51.046;13.780;2022-10-16T00:29:42;16.80;95.20
63277;DHT22;49403;51.046;13.780;2022-10-16T00:30:12;16.70;95.00
63277;DHT22;49403;51.046;13.780;2022-10-16T00:30:43;16.70;95.10
63277;DHT22;49403;51.046;13.780;2022-10-16T00:31:14;16.70;95.10
63277;DHT22;49403;51.046;13.780;2022-10-16T00:31:45;16.70;95.00
63277;DHT22;49403;51.046;13.780;2022-10-16T00:32:16;16.60;95.00
63277;DHT22;49403;51.046;13.780;2022-10-16T00:32:47;16.70;95.00
63277;DHT22;49403;51.046;13.780;2022-10-16T00:33:18;16.70;95.10
63277;DHT22;49403;51.046;13.780;2022-10-16T00:33:49;16.70;95.20
63277;DHT22;49403;51.046;13.780;2022-10-16T00:34:20;16.70;95.00
63277;DHT22;49403;51.046;13.780;2022-10-16T00:34:51;16.70;95.20
63277;DHT22;49403;51.046;13.780;2022-10-16T00:35:21;16.40;95.10
63277;DHT22;49403;51.046;13.780;2022-10-16T00:35:52;18.50;95.90
63277;DHT22;49403;51.046;13.780;2022-10-16T00:36:24;16.70;95.20
63277;DHT22;49403;51.046;13.780;2022-10-16T00:36:55;15.90;94.70
63277;DHT22;49403;51.046;13.780;2022-10-16T00:37:26;16.70;95.20
63277;DHT22;49403;51.046;13.780;2022-10-16T00:37:56;18.00;95.80
63277;DHT22;49403;51.046;13.780;2022-10-16T00:38:27;16.80;95.30
63277;DHT22;49403;51.046;13.780;2022-10-16T00:38:58;16.70;95.20
63277;DHT22;49403;51.046;13.780;2022-10-16T00:39:30;16.70;95.20
63277;DHT22;49403;51.046;13.780;2022-10-16T00:40:01;16.70;95.30
63277;DHT22;49403;51.046;13.780;2022-10-16T00:40:32;16.70;95.30
63277;DHT22;49403;51.046;13.780;2022-10-16T00:41:03;16.70;95.10
63277;DHT22;49403;51.046;13.780;2022-10-16T00:41:34;16.70;95.10
63277;DHT22;49403;51.046;13.780;2022-10-16T00:42:05;16.70;95.10
63277;DHT22;49403;51.046;13.780;2022-10-16T00:42:35;16.70;95.20
63277;DHT22;49403;51.046;13.780;2022-10-16T00:43:12;16.70;95.20
63277;DHT22;49403;51.046;13.780;2022-10-16T00:43:49;16.70;95.00
63277;DHT22;49403;51.046;13.780;2022-10-16T00:45:10;16.70;95.00
63277;DHT22;49403;51.046;13.780;2022-10-16T00:45:41;16.80;95.20
63277;DHT22;49403;51.046;13.780;2022-10-16T00:46:48;18.30;95.80
63277;DHT22;49403;51.046;13.780;2022-10-16T00:47:27;16.70;95.10
63277;DHT22;49403;51.046;13.780;2022-10-16T00:47:59;16.70;95.10
63277;DHT22;49403;51.046;13.780;2022-10-16T00:48:29;16.70;95.20
63277;DHT22;49403;51.046;13.780;2022-10-16T00:49:10;16.70;95.20
63277;DHT22;49403;51.046;13.780;2022-10-16T00:49:42;18.50;95.90
63277;DHT22;49403;51.046;13.780;2022-10-16T00:50:22;16.70;95.30
63277;DHT22;49403;51.046;13.780;2022-10-16T00:50:54;17.10;95.30
63277;DHT22;49403;51.046;13.780;2022-10-16T00:51:25;16.30;95.00
63277;DHT22;49403;51.046;13.780;2022-10-16T00:51:58;16.80;95.20
63277;DHT22;49403;51.046;13.780;2022-10-16T00:52:29;16.80;95.40
63277;DHT22;49403;51.046;13.780;2022-10-16T00:53:00;16.80;95.30
63277;DHT22;49403;51.046;13.780;2022-10-16T00:53:32;16.70;95.20
63277;DHT22;49403;51.046;13.780;2022-10-16T00:54:04;16.70;95.30
63277;DHT22;49403;51.046;13.780;2022-10-16T00:54:35;16.70;95.20
63277;DHT22;49403;51.046;13.780;2022-10-16T00:55:06;17.30;95.50
63277;DHT22;49403;51.046;13.780;2022-10-16T00:55:37;16.80;95.30
63277;DHT22;49403;51.046;13.780;2022-10-16T00:56:07;16.80;95.50
63277;DHT22;49403;51.046;13.780;2022-10-16T00:56:38;16.80;95.40
63277;DHT22;49403;51.046;13.780;2022-10-16T00:57:09;16.80;95.30
63277;DHT22;49403;51.046;13.780;2022-10-16T00:57:40;16.80;95.50
63277;DHT22;49403;51.046;13.780;2022-10-16T00:58:12;16.80;95.30
63277;DHT22;49403;51.046;13.780;2022-10-16T00:58:42;16.80;95.50
63277;DHT22;49403;51.046;13.780;2022-10-16T00:59:18;16.80;95.40
63277;DHT22;49403;51.046;13.780;2022-10-16T00:59:49;16.70;95.20
63277;DHT22;49403;51.046;13.780;2022-10-16T01:00:22;16.80;95.30
63277;DHT22;49403;51.046;13.780;2022-10-16T01:00:53;16.80;95.30
63277;DHT22;49403;51.046;13.780;2022-10-16T01:01:23;16.80;95.50
63277;DHT22;49403;51.046;13.780;2022-10-16T01:01:54;16.80;95.40
63277;DHT22;49403;51.046;13.780;2022-10-16T01:02:25;16.70;95.20
63277;DHT22;49403;51.046;13.780;2022-10-16T01:02:59;16.80;95.40
63277;DHT22;49403;51.046;13.780;2022-10-16T01:03:32;16.80;95.30
63277;DHT22;49403;51.046;13.780;2022-10-16T01:04:03;16.70;95.30
63277;DHT22;49403;51.046;13.780;2022-10-16T01:04:35;16.60;95.30
63277;DHT22;49403;51.046;13.780;2022-10-16T01:05:06;16.80;95.30
63277;DHT22;49403;51.046;13.780;2022-10-16T01:05:42;16.80;95.30
63277;DHT22;49403;51.046;13.780;2022-10-16T01:06:22;16.80;95.20
63277;DHT22;49403;51.046;13.780;2022-10-16T01:07:00;16.80;95.20
63277;DHT22;49403;51.046;13.780;2022-10-16T01:07:45;16.80;95.20
63277;DHT22;49403;51.046;13.780;2022-10-16T01:08:27;16.80;95.20
63277;DHT22;49403;51.046;13.780;2022-10-16T01:09:07;16.80;95.40
63277;DHT22;49403;51.046;13.780;2022-10-16T01:09:49;15.10;94.50
63277;DHT22;49403;51.046;13.780;2022-10-16T01:10:55;16.80;95.60
63277;DHT22;49403;51.046;13.780;2022-10-16T01:11:38;17.10;95.60
63277;DHT22;49403;51.046;13.780;2022-10-16T01:12:58;16.90;95.40
63277;DHT22;49403;51.046;13.780;2022-10-16T01:13:31;15.70;94.80
63277;DHT22;49403;51.046;13.780;2022-10-16T01:14:06;16.90;95.50
63277;DHT22;49403;51.046;13.780;2022-10-16T01:14:44;16.90;95.50
63277;DHT22;49403;51.046;13.780;2022-10-16T01:15:18;16.90;95.50
63277;DHT22;49403;51.046;13.780;2022-10-16T01:15:59;16.90;95.50
63277;DHT22;49403;51.046;13.780;2022-10-16T01:16:33;17.00;95.40
63277;DHT22;49403;51.046;13.780;2022-10-16T01:17:12;17.00;95.40
63277;DHT22;49403;51.046;13.780;2022-10-16T01:17:51;17.00;95.40
63277;DHT22;49403;51.046;13.780;2022-10-16T01:18:39;17.40;95.50
63277;DHT22;49403;51.046;13.780;2022-10-16T01:19:16;17.00;95.30
63277;DHT22;49403;51.046;13.780;2022-10-16T01:19:53;17.00;95.40
63277;DHT22;49403;51.046;13.780;2022-10-16T01:20:29;17.00;95.30
63277;DHT22;49403;51.046;13.780;2022-10-16T01:21:02;17.00;95.20
63277;DHT22;49403;51.046;13.780;2022-10-16T01:21:35;17.00;95.30
63277;DHT22;49403;51.046;13.780;2022-10-16T01:22:06;17.00;95.30
63277;DHT22;49403;51.046;13.780;2022-10-16T01:23:03;17.00;95.30
63277;DHT22;49403;51.046;13.780;2022-10-16T01:24:49;17.00;95.40
63277;DHT22;49403;51.046;13.780;2022-10-16T01:26:12;17.00;95.10
63277;DHT22;49403;51.046;13.780;2022-10-16T01:27:34;17.00;95.10
63277;DHT22;49403;51.046;13.780;2022-10-16T01:28:05;17.00;95.20
63277;DHT22;49403;51.046;13.780;2022-10-16T01:28:40;17.10;95.30
63277;DHT22;49403;51.046;13.780;2022-10-16T01:29:16;17.10;95.30
63277;DHT22;49403;51.046;13.780;2022-10-16T01:30:25;17.10;95.10
63277;DHT22;49403;51.046;13.780;2022-10-16T01:30:58;17.10;95.20
63277;DHT22;49403;51.046;13.780;2022-10-16T01:31:29;17.10;95.20
63277;DHT22;49403;51.046;13.780;2022-10-16T01:32:05;17.10;95.20
63277;DHT22;49403;51.046;13.780;2022-10-16T01:33:19;17.10;95.30
63277;DHT22;49403;51.046;13.780;2022-10-16T01:33:51;17.10;95.10
63277;DHT22;49403;51.046;13.780;2022-10-16T01:34:33;17.20;95.20
63277;DHT22;49403;51.046;13.780;2022-10-16T01:35:09;17.10;95.10
63277;DHT22;49403;51.046;13.780;2022-10-16T01:35:48;17.10;95.10
63277;DHT22;49403;51.046;13.780;2022-10-16T01:36:23;17.20;95.00
63277;DHT22;49403;51.046;13.780;2022-10-16T01:37:04;16.50;94.80
63277;DHT22;49403;51.046;13.780;2022-10-16T01:38:19;17.10;95.30
63277;DHT22;49403;51.046;13.780;2022-10-16T01:38:30;17.10;95.00
63277;DHT22;49403;51.046;13.780;2022-10-16T01:39:03;17.10;95.10
63277;DHT22;49403;51.046;13.780;2022-10-16T01:39:34;17.10;95.10
63277;DHT22;49403;51.046;13.780;2022-10-16T01:40:10;18.00;95.50
63277;DHT22;49403;51.046;13.780;2022-10-16T01:40:43;17.10;95.00
63277;DHT22;49403;51.046;13.780;2022-10-16T01:41:21;17.10;95.10
63277;DHT22;49403;51.046;13.780;2022-10-16T01:41:57;17.20;95.00
63277;DHT22;49403;51.046;13.780;2022-10-16T01:42:34;17.80;95.40
63277;DHT22;49403;51.046;13.780;2022-10-16T01:43:07;17.10;95.10
63277;DHT22;49403;51.046;13.780;2022-10-16T01:43:40;17.10;95.10
63277;DHT22;49403;51.046;13.780;2022-10-16T01:44:21;17.20;95.10
63277;DHT22;49403;51.046;13.780;2022-10-16T01:44:53;17.20;95.00
63277;DHT22;49403;51.046;13.780;2022-10-16T01:45:24;17.20;95.00
63277;DHT22;49403;51.046;13.780;2022-10-16T01:45:57;17.20;95.00
63277;DHT22;49403;51.046;13.780;2022-10-16T01:46:28;17.20;95.00
63277;DHT22;49403;51.046;13.780;2022-10-16T01:47:01;18.50;95.60
63277;DHT22;49403;51.046;13.780;2022-10-16T01:47:32;17.60;95.20
63277;DHT22;49403;51.046;13.780;2022-10-16T01:48:04;17.20;95.00
63277;DHT22;49403;51.046;13.780;2022-10-16T01:48:38;17.20;94.90
63277;DHT22;49403;51.046;13.780;2022-10-16T01:49:09;17.20;95.00
63277;DHT22;49403;51.046;13.780;2022-10-16T01:49:40;15.50;94.20
63277;DHT22;49403;51.046;13.780;2022-10-16T01:50:12;16.90;94.80
63277;DHT22;49403;51.046;13.780;2022-10-16T01:50:56;17.20;94.90
63277;DHT22;49403;51.046;13.780;2022-10-16T01:51:28;17.20;94.90
63277;DHT22;49403;51.046;13.780;2022-10-16T01:52:00;17.20;94.90
63277;DHT22;49403;51.046;13.780;2022-10-16T01:52:33;17.20;94.90
63277;DHT22;49403;51.046;13.780;2022-10-16T01:53:05;18.10;95.30
63277;DHT22;49403;51.046;13.780;2022-10-16T01:53:38;17.10;94.90
63277;DHT22;49403;51.046;13.780;2022-10-16T01:54:09;17.20;94.90
63277;DHT22;49403;51.046;13.780;2022-10-16T01:54:42;17.20;94.90
63277;DHT22;49403;51.046;13.780;2022-10-16T01:55:14;17.20;94.90
63277;DHT22;49403;51.046;13.780;2022-10-16T01:55:46;17.20;94.90
63277;DHT22;49403;51.046;13.780;2022-10-16T01:56:18;17.20;94.90
63277;DHT22;49403;51.046;13.780;2022-10-16T01:56:52;18.60;95.60
63277;DHT22;49403;51.046;13.780;2022-10-16T01:57:25;17.20;95.00
63277;DHT22;49403;51.046;13.780;2022-10-16T01:57:57;17.20;95.00
63277;DHT22;49403;51.046;13.780;2022-10-16T01:58:28;17.20;95.00
63277;DHT22;49403;51.046;13.780;2022-10-16T01:59:09;17.20;95.00
63277;DHT22;49403;51.046;13.780;2022-10-16T01:59:46;15.50;94.10
63277;DHT22;49403;51.046;13.780;2022-10-16T02:00:17;17.20;94.80
63277;DHT22;49403;51.046;13.780;2022-10-16T02:00:49;17.20;94.90
63277;DHT22;49403;51.046;13.780;2022-10-16T02:01:21;17.20;95.00
63277;DHT22;49403;51.046;13.780;2022-10-16T02:01:54;17.20;94.90
63277;DHT22;49403;51.046;13.780;2022-10-16T02:02:26;17.20;95.30
63277;DHT22;49403;51.046;13.780;2022-10-16T02:02:58;17.20;94.90
63277;DHT22;49403;51.046;13.780;2022-10-16T02:03:32;17.20;94.90
63277;DHT22;49403;51.046;13.780;2022-10-16T02:04:08;17.20;94.90
63277;DHT22;49403;51.046;13.780;2022-10-16T02:04:42;18.90;95.60
63277;DHT22;49403;51.046;13.780;2022-10-16T02:05:57;17.20;94.80
63277;DHT22;49403;51.046;13.780;2022-10-16T02:06:28;16.50;94.50
63277;DHT22;49403;51.046;13.780;2022-10-16T02:06:59;17.20;95.00
63277;DHT22;49403;51.046;13.780;2022-10-16T02:07:30;17.20;95.00
63277;DHT22;49403;51.046;13.780;2022-10-16T02:08:01;17.20;94.90
63277;DHT22;49403;51.046;13.780;2022-10-16T02:08:32;17.20;94.80
63277;DHT22;49403;51.046;13.780;2022-10-16T02:09:03;17.00;94.70
63277;DHT22;49403;51.046;13.780;2022-10-16T02:09:34;17.10;94.90
63277;DHT22;49403;51.046;13.780;2022-10-16T02:10:05;17.10;94.80
63277;DHT22;49403;51.046;13.780;2022-10-16T02:10:36;17.20;94.80
63277;DHT22;49403;51.046;13.780;2022-10-16T02:11:08;17.10;94.80
63277;DHT22;49403;51.046;13.780;2022-10-16T02:11:38;17.10;95.00
63277;DHT22;49403;51.046;13.780;2022-10-16T02:12:10;17.10;95.00
63277;DHT22;49403;51.046;13.780;2022-10-16T02:12:44;17.10;94.80
63277;DHT22;49403;51.046;13.780;2022-10-16T02:13:22;17.10;94.80
63277;DHT22;49403;51.046;13.780;2022-10-16T02:13:55;17.10;94.80
63277;DHT22;49403;51.046;13.780;2022-10-16T02:14:28;17.10;94.90
63277;DHT22;49403;51.046;13.780;2022-10-16T02:14:59;17.10;94.90
63277;DHT22;49403;51.046;13.780;2022-10-16T02:15:30;17.10;95.10
63277;DHT22;49403;51.046;13.780;2022-10-16T02:16:00;17.10;95.10
63277;DHT22;49403;51.046;13.780;2022-10-16T02:16:40;17.10;94.90
63277;DHT22;49403;51.046;13.780;2022-10-16T02:17:15;17.10;94.80
63277;DHT22;49403;51.046;13.780;2022-10-16T02:17:46;17.10;94.90
63277;DHT22;49403;51.046;13.780;2022-10-16T02:18:17;17.40;95.20
63277;DHT22;49403;51.046;13.780;2022-10-16T02:18:47;17.10;95.00
63277;DHT22;49403;51.046;13.780;2022-10-16T02:19:19;16.80;94.80
63277;DHT22;49403;51.046;13.780;2022-10-16T02:19:51;17.20;95.30
63277;DHT22;49403;51.046;13.780;2022-10-16T02:20:25;17.20;95.00
63277;DHT22;49403;51.046;13.780;2022-10-16T02:20:59;17.20;95.00
63277;DHT22;49403;51.046;13.780;2022-10-16T02:21:41;16.70;94.80
63277;DHT22;49403;51.046;13.780;2022-10-16T02:23:00;17.10;95.20
63277;DHT22;49403;51.046;13.780;2022-10-16T02:23:35;18.40;95.50
63277;DHT22;49403;51.046;13.780;2022-10-16T02:24:12;17.20;94.80
63277;DHT22;49403;51.046;13.780;2022-10-16T02:25:30;17.20;94.90
63277;DHT22;49403;51.046;13.780;2022-10-16T02:26:03;17.20;95.00
63277;DHT22;49403;51.046;13.780;2022-10-16T02:26:42;17.10;95.00
63277;DHT22;49403;51.046;13.780;2022-10-16T02:27:17;17.20;94.90
63277;DHT22;49403;51.046;13.780;2022-10-16T02:28:28;17.20;95.20
63277;DHT22;49403;51.046;13.780;2022-10-16T02:29:03;17.20;94.90
63277;DHT22;49403;51.046;13.780;2022-10-16T02:29:38;17.20;95.00
63277;DHT22;49403;51.046;13.780;2022-10-16T02:30:51;17.10;94.90
63277;DHT22;49403;51.046;13.780;2022-10-16T02:31:27;17.20;95.00
63277;DHT22;49403;51.046;13.780;2022-10-16T02:31:59;17.20;95.00
63277;DHT22;49403;51.046;13.780;2022-10-16T02:32:31;17.20;95.00
63277;DHT22;49403;51.046;13.780;2022-10-16T02:33:03;17.20;95.10
63277;DHT22;49403;51.046;13.780;2022-10-16T02:33:35;17.20;95.00
63277;DHT22;49403;51.046;13.780;2022-10-16T02:34:08;17.20;95.00
63277;DHT22;49403;51.046;13.780;2022-10-16T02:34:42;17.20;95.00
63277;DHT22;49403;51.046;13.780;2022-10-16T02:35:14;17.20;95.00
63277;DHT22;49403;51.046;13.780;2022-10-16T02:35:46;17.30;95.00
63277;DHT22;49403;51.046;13.780;2022-10-16T02:36:18;17.30;95.00
63277;DHT22;49403;51.046;13.780;2022-10-16T02:36:49;17.20;95.10
63277;DHT22;49403;51.046;13.780;2022-10-16T02:37:20;18.10;95.40
63277;DHT22;49403;51.046;13.780;2022-10-16T02:37:51;17.20;95.10
63277;DHT22;49403;51.046;13.780;2022-10-16T02:38:22;17.30;95.00
63277;DHT22;49403;51.046;13.780;2022-10-16T02:38:53;17.20;94.90
63277;DHT22;49403;51.046;13.780;2022-10-16T02:39:24;17.30;95.00
63277;DHT22;49403;51.046;13.780;2022-10-16T02:39:57;17.30;95.00
63277;DHT22;49403;51.046;13.780;2022-10-16T02:40:28;17.30;94.90
63277;DHT22;49403;51.046;13.780;2022-10-16T02:40:59;17.30;95.00
63277;DHT22;49403;51.046;13.780;2022-10-16T02:41:30;17.30;95.10
63277;DHT22;49403;51.046;13.780;2022-10-16T02:42:01;17.30;95.00
63277;DHT22;49403;51.046;13.780;2022-10-16T02:42:35;17.30;95.10
63277;DHT22;49403;51.046;13.780;2022-10-16T02:43:06;17.30;94.80
63277;DHT22;49403;51.046;13.780;2022-10-16T02:43:37;17.30;94.90
63277;DHT22;49403;51.046;13.780;2022-10-16T02:44:07;17.30;95.10
63277;DHT22;49403;51.046;13.780;2022-10-16T02:44:38;17.50;95.20
63277;DHT22;49403;51.046;13.780;2022-10-16T02:45:09;17.30;95.00
63277;DHT22;49403;51.046;13.780;2022-10-16T02:45:40;17.70;95.10
63277;DHT22;49403;51.046;13.780;2022-10-16T02:46:11;17.30;94.90
63277;DHT22;49403;51.046;13.780;2022-10-16T02:46:42;17.40;95.00
63277;DHT22;49403;51.046;13.780;2022-10-16T02:47:13;17.40;94.90
63277;DHT22;49403;51.046;13.780;2022-10-16T02:47:43;17.40;95.00
63277;DHT22;49403;51.046;13.780;2022-10-16T02:48:14;17.40;95.00
63277;DHT22;49403;51.046;13.780;2022-10-16T02:48:45;18.70;95.70
63277;DHT22;49403;51.046;13.780;2022-10-16T02:49:16;17.40;94.80
63277;DHT22;49403;51.046;13.780;2022-10-16T02:49:48;17.40;94.90
63277;DHT22;49403;51.046;13.780;2022-10-16T02:50:19;17.40;95.00
63277;DHT22;49403;51.046;13.780;2022-10-16T02:50:49;17.40;95.00
63277;DHT22;49403;51.046;13.780;2022-10-16T02:51:21;17.40;94.90
63277;DHT22;49403;51.046;13.780;2022-10-16T02:51:52;16.50;94.40
63277;DHT22;49403;51.046;13.780;2022-10-16T02:52:23;17.40;94.90
63277;DHT22;49403;51.046;13.780;2022-10-16T02:52:53;17.40;94.80
63277;DHT22;49403;51.046;13.780;2022-10-16T02:53:24;17.20;94.70
63277;DHT22;49403;51.046;13.780;2022-10-16T02:53:55;18.00;95.10
63277;DHT22;49403;51.046;13.780;2022-10-16T02:54:26;16.90;94.70
63277;DHT22;49403;51.046;13.780;2022-10-16T02:54:56;17.50;94.90
63277;DHT22;49403;51.046;13.780;2022-10-16T02:55:27;17.50;95.00
63277;DHT22;49403;51.046;13.780;2022-10-16T02:55:58;17.50;94.80
63277;DHT22;49403;51.046;13.780;2022-10-16T02:56:29;17.50;94.90
63277;DHT22;49403;51.046;13.780;2022-10-16T02:57:01;17.50;94.70
63277;DHT22;49403;51.046;13.780;2022-10-16T02:57:31;17.50;94.80
63277;DHT22;49403;51.046;13.780;2022-10-16T02:58:02;17.50;94.70
63277;DHT22;49403;51.046;13.780;2022-10-16T02:58:33;17.50;94.70
63277;DHT22;49403;51.046;13.780;2022-10-16T02:59:04;17.50;94.70
63277;DHT22;49403;51.046;13.780;2022-10-16T02:59:35;17.50;94.60
63277;DHT22;49403;51.046;13.780;2022-10-16T03:00:06;17.50;94.70
63277;DHT22;49403;51.046;13.780;2022-10-16T03:00:38;17.50;94.60
63277;DHT22;49403;51.046;13.780;2022-10-16T03:01:08;17.50;94.70
63277;DHT22;49403;51.046;13.780;2022-10-16T03:01:39;17.50;94.70
63277;DHT22;49403;51.046;13.780;2022-10-16T03:02:10;17.50;94.60
63277;DHT22;49403;51.046;13.780;2022-10-16T03:02:41;16.60;94.20
63277;DHT22;49403;51.046;13.780;2022-10-16T03:03:11;17.50;94.60
63277;DHT22;49403;51.046;13.780;2022-10-16T03:03:45;17.50;94.50
63277;DHT22;49403;51.046;13.780;2022-10-16T03:04:16;17.50;94.70
63277;DHT22;49403;51.046;13.780;2022-10-16T03:04:46;17.50;94.60
63277;DHT22;49403;51.046;13.780;2022-10-16T03:05:17;17.50;94.60
63277;DHT22;49403;51.046;13.780;2022-10-16T03:05:48;17.50;94.70
63277;DHT22;49403;51.046;13.780;2022-10-16T03:06:19;17.50;94.60
63277;DHT22;49403;51.046;13.780;2022-10-16T03:06:50;16.20;94.10
63277;DHT22;49403;51.046;13.780;2022-10-16T03:07:20;17.50;94.70
63277;DHT22;49403;51.046;13.780;2022-10-16T03:07:51;17.40;94.60
63277;DHT22;49403;51.046;13.780;2022-10-16T03:08:23;17.40;94.60
63277;DHT22;49403;51.046;13.780;2022-10-16T03:08:55;17.50;94.70
63277;DHT22;49403;51.046;13.780;2022-10-16T03:09:26;17.50;94.70
63277;DHT22;49403;51.046;13.780;2022-10-16T03:09:56;17.40;94.70
63277;DHT22;49403;51.046;13.780;2022-10-16T03:10:30;17.40;94.60
63277;DHT22;49403;51.046;13.780;2022-10-16T03:11:01;17.40;94.70
63277;DHT22;49403;51.046;13.780;2022-10-16T03:11:31;17.40;94.70
63277;DHT22;49403;51.046;13.780;2022-10-16T03:12:02;17.40;94.70
63277;DHT22;49403;51.046;13.780;2022-10-16T03:12:33;17.40;94.50
63277;DHT22;49403;51.046;13.780;2022-10-16T03:13:04;17.50;94.70
63277;DHT22;49403;51.046;13.780;2022-10-16T03:13:34;17.40;94.60
63277;DHT22;49403;51.046;13.780;2022-10-16T03:14:05;17.40;94.60
63277;DHT22;49403;51.046;13.780;2022-10-16T03:14:36;17.40;94.60
63277;DHT22;49403;51.046;13.780;2022-10-16T03:15:07;17.40;94.70
63277;DHT22;49403;51.046;13.780;2022-10-16T03:15:37;17.70;95.00
63277;DHT22;49403;51.046;13.780;2022-10-16T03:16:08;17.30;94.70
63277;DHT22;49403;51.046;13.780;2022-10-16T03:16:39;17.40;94.60
63277;DHT22;49403;51.046;13.780;2022-10-16T03:17:10;17.40;94.70
63277;DHT22;49403;51.046;13.780;2022-10-16T03:17:41;17.30;94.70
63277;DHT22;49403;51.046;13.780;2022-10-16T03:18:11;17.40;94.80
63277;DHT22;49403;51.046;13.780;2022-10-16T03:18:42;18.00;94.90
63277;DHT22;49403;51.046;13.780;2022-10-16T03:19:13;17.40;94.90
63277;DHT22;49403;51.046;13.780;2022-10-16T03:19:44;17.30;94.70
63277;DHT22;49403;51.046;13.780;2022-10-16T03:20:15;17.30;94.90
63277;DHT22;49403;51.046;13.780;2022-10-16T03:20:45;17.30;94.90
63277;DHT22;49403;51.046;13.780;2022-10-16T03:21:16;17.30;94.90
63277;DHT22;49403;51.046;13.780;2022-10-16T03:21:47;17.30;94.80
63277;DHT22;49403;51.046;13.780;2022-10-16T03:22:18;17.30;94.80
63277;DHT22;49403;51.046;13.780;2022-10-16T03:22:49;17.30;94.90
63277;DHT22;49403;51.046;13.780;2022-10-16T03:23:19;17.30;94.80
63277;DHT22;49403;51.046;13.780;2022-10-16T03:23:50;18.90;95.70
63277;DHT22;49403;51.046;13.780;2022-10-16T03:24:21;17.30;94.90
63277;DHT22;49403;51.046;13.780;2022-10-16T03:24:52;17.30;95.00
63277;DHT22;49403;51.046;13.780;2022-10-16T03:25:22;17.30;94.90
63277;DHT22;49403;51.046;13.780;2022-10-16T03:25:53;17.00;94.80
63277;DHT22;49403;51.046;13.780;2022-10-16T03:26:24;17.30;94.80
63277;DHT22;49403;51.046;13.780;2022-10-16T03:26:55;18.80;95.60
63277;DHT22;49403;51.046;13.780;2022-10-16T03:27:26;17.30;94.90
63277;DHT22;49403;51.046;13.780;2022-10-16T03:27:56;17.30;95.00
63277;DHT22;49403;51.046;13.780;2022-10-16T03:28:27;17.30;95.00
63277;DHT22;49403;51.046;13.780;2022-10-16T03:28:58;17.30;95.00
63277;DHT22;49403;51.046;13.780;2022-10-16T03:29:29;17.30;94.90
63277;DHT22;49403;51.046;13.780;2022-10-16T03:29:59;17.30;95.00
63277;DHT22;49403;51.046;13.780;2022-10-16T03:30:30;15.80;94.30
63277;DHT22;49403;51.046;13.780;2022-10-16T03:31:01;17.30;94.80
63277;DHT22;49403;51.046;13.780;2022-10-16T03:31:32;17.40;95.00
63277;DHT22;49403;51.046;13.780;2022-10-16T03:32:03;17.30;94.90
63277;DHT22;49403;51.046;13.780;2022-10-16T03:32:34;17.30;95.00